Time;durP1;ratioP1;P1;durP2;ratioP2;P2;SDS_P1;SDS_P2;PMS_P1;PMS_P2;Temp;Humidity;BMP_temperature;BMP_pressure;BME280_temperature;BME280_humidity;BME280_pressure;Samples;Min_cycle;Max_cycle;Signal;HPM_P1;HPM_P2
2021/08/27 00:02:16;;;;;;;3.40;1.23;;;;;;;;;;5018264;28;20594;-75
2021/08/27 00:04:41;;;;;;;3.53;1.20;;;;;;;;;;5020068;28;20228;-74
2021/08/27 00:07:06;;;;;;;3.27;1.30;;;;;;;;;;5019138;28;20646;-74
2021/08/27 00:09:31;;;;;;;3.70;1.30;;;;;;;;;;5016867;28;20724;-74
2021/08/27 00:11:57;;;;;;;6.73;1.83;;;;;;;;;;5015242;28;20264;-73
2021/08/27 00:14:22;;;;;;;3.63;1.70;;;;;;;;;;5018884;28;20220;-74
2021/08/27 00:16:47;;;;;;;4.30;1.37;;;;;;;;;;5022243;28;20255;-74
2021/08/27 00:19:12;;;;;;;3.30;1.20;;;;;;;;;;5023448;28;20173;-74
2021/08/27 00:21:38;;;;;;;3.80;1.40;;;;;;;;;;5026306;28;20573;-74
2021/08/27 00:24:03;;;;;;;4.63;1.43;;;;;;;;;;5023879;28;20579;-74
2021/08/27 00:26:29;;;;;;;3.77;1.60;;;;;;;;;;5020542;28;20271;-74
2021/08/27 00:28:54;;;;;;;3.73;1.60;;;;;;;;;;5024979;28;20188;-74
2021/08/27 00:31:20;;;;;;;5.70;1.87;;;;;;;;;;5023595;28;20448;-74
2021/08/27 00:33:45;;;;;;;4.00;1.40;;;;;;;;;;5022719;28;20192;-74
2021/08/27 00:36:10;;;;;;;5.77;1.90;;;;;;;;;;5022891;28;20279;-74
2021/08/27 00:38:36;;;;;;;4.10;1.70;;;;;;;;;;5023949;28;20203;-74
2021/08/27 00:41:01;;;;;;;6.00;1.90;;;;;;;;;;5024812;28;20181;-75
2021/08/27 00:43:26;;;;;;;5.10;1.80;;;;;;;;;;5023086;28;20276;-74
2021/08/27 00:45:51;;;;;;;5.07;2.10;;;;;;;;;;5022073;28;20829;-75
2021/08/27 00:48:17;;;;;;;4.27;1.80;;;;;;;;;;5023099;28;20226;-76
2021/08/27 00:50:43;;;;;;;5.50;2.20;;;;;;;;;;5024977;28;20180;-75
2021/08/27 00:53:08;;;;;;;5.07;2.10;;;;;;;;;;5023832;28;20291;-74
2021/08/27 00:55:34;;;;;;;3.90;2.13;;;;;;;;;;5025416;28;20442;-75
2021/08/27 00:57:59;;;;;;;7.23;2.00;;;;;;;;;;5025670;28;20298;-75
2021/08/27 01:00:25;;;;;;;4.60;1.80;;;;;;;;;;5021937;28;26361;-74
2021/08/27 01:02:53;;;;;;;8.20;1.90;;;;;;;;;;5024186;28;20177;-74
2021/08/27 01:05:19;;;;;;;7.30;2.30;;;;;;;;;;5022921;28;20231;-75
2021/08/27 01:08:02;;;;;;;4.33;2.20;;;;;;;;;;5023093;28;21041;-75
2021/08/27 01:10:31;;;;;;;6.60;2.40;;;;;;;;;;5026808;28;20191;-75
2021/08/27 01:13:15;;;;;;;4.60;2.00;;;;;;;;;;5024589;28;20479;-75
2021/08/27 01:15:52;;;;;;;5.73;1.93;;;;;;;;;;5022357;28;21576;-75
2021/08/27 01:18:32;;;;;;;4.27;2.33;;;;;;;;;;5023313;28;20748;-75
2021/08/27 01:21:16;;;;;;;4.07;2.23;;;;;;;;;;5023637;28;20440;-75
2021/08/27 01:23:46;;;;;;;5.47;2.60;;;;;;;;;;5022404;28;21018;-75
2021/08/27 01:26:13;;;;;;;3.67;2.13;;;;;;;;;;5021929;28;21041;-75
2021/08/27 01:28:40;;;;;;;6.47;2.40;;;;;;;;;;5017423;28;20466;-75
2021/08/27 01:31:16;;;;;;;4.17;2.03;;;;;;;;;;5020951;28;20810;-75
2021/08/27 01:34:02;;;;;;;2.33;1.70;;;;;;;;;;5018681;28;20998;-75
2021/08/27 01:36:29;;;;;;;6.70;2.10;;;;;;;;;;5019201;28;20466;-75
2021/08/27 01:38:55;;;;;;;2.90;1.70;;;;;;;;;;5022028;28;20921;-75
2021/08/27 01:41:21;;;;;;;5.50;2.27;;;;;;;;;;5022974;28;20463;-75
2021/08/27 01:43:48;;;;;;;5.57;2.07;;;;;;;;;;5017521;28;20177;-75
2021/08/27 01:46:13;;;;;;;3.97;2.00;;;;;;;;;;5016797;28;20287;-75
2021/08/27 01:48:39;;;;;;;4.10;2.10;;;;;;;;;;5020628;28;20489;-75
2021/08/27 01:51:04;;;;;;;3.10;1.70;;;;;;;;;;5021009;28;20181;-75
2021/08/27 01:53:30;;;;;;;3.63;2.00;;;;;;;;;;5021802;28;20660;-75
2021/08/27 01:55:59;;;;;;;10.23;2.37;;;;;;;;;;5020496;28;20192;-75
2021/08/27 01:58:28;;;;;;;4.83;2.13;;;;;;;;;;5020087;28;20267;-75
2021/08/27 02:00:55;;;;;;;4.00;1.90;;;;;;;;;;5017782;28;20424;-75
2021/08/27 02:03:20;;;;;;;3.87;2.13;;;;;;;;;;5033837;28;20436;-75
2021/08/27 02:05:46;;;;;;;10.17;2.40;;;;;;;;;;5021409;28;20467;-75
2021/08/27 02:08:12;;;;;;;5.83;2.40;;;;;;;;;;5020963;28;20732;-75
2021/08/27 02:10:38;;;;;;;5.13;2.00;;;;;;;;;;5018847;28;20173;-75
2021/08/27 02:13:03;;;;;;;4.93;2.20;;;;;;;;;;5018240;28;20464;-75
2021/08/27 02:15:30;;;;;;;6.17;2.30;;;;;;;;;;5020628;28;20688;-75
2021/08/27 02:17:55;;;;;;;4.60;2.17;;;;;;;;;;5035766;28;20679;-75
2021/08/27 02:20:21;;;;;;;3.47;1.97;;;;;;;;;;5019813;28;20436;-75
2021/08/27 02:22:49;;;;;;;3.57;2.40;;;;;;;;;;5021600;28;20547;-75
2021/08/27 02:25:15;;;;;;;5.93;1.80;;;;;;;;;;5016623;28;20212;-75
2021/08/27 02:27:42;;;;;;;9.30;2.30;;;;;;;;;;5017041;28;20424;-75
2021/08/27 02:30:08;;;;;;;3.77;2.23;;;;;;;;;;5019392;28;20455;-75
2021/08/27 02:32:34;;;;;;;5.17;1.90;;;;;;;;;;5019065;28;20764;-75
2021/08/27 02:35:01;;;;;;;8.60;2.37;;;;;;;;;;5020538;28;20650;-75
2021/08/27 02:37:28;;;;;;;7.07;2.20;;;;;;;;;;5018226;28;20432;-75
2021/08/27 02:39:53;;;;;;;6.80;1.80;;;;;;;;;;5018689;28;20453;-75
2021/08/27 02:42:19;;;;;;;4.23;2.30;;;;;;;;;;5019750;28;20810;-75
2021/08/27 02:44:45;;;;;;;5.60;2.00;;;;;;;;;;5019267;28;20275;-75
2021/08/27 02:47:10;;;;;;;3.97;2.00;;;;;;;;;;5018097;28;20436;-75
2021/08/27 02:49:35;;;;;;;5.27;2.20;;;;;;;;;;5018505;28;20628;-75
2021/08/27 02:52:09;;;;;;;5.90;2.30;;;;;;;;;;5018691;28;20180;-75
2021/08/27 02:54:39;;;;;;;3.60;2.10;;;;;;;;;;5018582;28;20215;-75
2021/08/27 02:57:05;;;;;;;4.07;1.83;;;;;;;;;;5016356;28;20440;-75
2021/08/27 02:59:31;;;;;;;3.67;1.60;;;;;;;;;;5015602;28;20435;-75
2021/08/27 03:01:57;;;;;;;7.70;2.40;;;;;;;;;;5017518;28;20373;-75
2021/08/27 03:04:33;;;;;;;4.80;1.87;;;;;;;;;;5017088;28;20524;-75
2021/08/27 03:07:05;;;;;;;4.53;1.70;;;;;;;;;;5016758;28;20443;-75
2021/08/27 03:09:41;;;;;;;7.60;1.50;;;;;;;;;;5018803;28;20928;-75
2021/08/27 03:12:07;;;;;;;6.70;1.97;;;;;;;;;;5018183;28;20445;-75
2021/08/27 03:14:36;;;;;;;5.40;2.17;;;;;;;;;;5019528;28;20474;-75
2021/08/27 03:17:03;;;;;;;3.20;1.40;;;;;;;;;;5019514;28;20226;-75
2021/08/27 03:19:33;;;;;;;3.77;1.87;;;;;;;;;;5017806;28;20976;-75
2021/08/27 03:22:07;;;;;;;4.50;1.90;;;;;;;;;;5018706;28;20432;-75
2021/08/27 03:24:34;;;;;;;6.23;2.10;;;;;;;;;;5017144;28;20465;-75
2021/08/27 03:27:01;;;;;;;2.50;2.00;;;;;;;;;;5017694;28;20554;-75
2021/08/27 03:29:33;;;;;;;4.20;1.90;;;;;;;;;;5017843;28;20461;-75
2021/08/27 03:31:58;;;;;;;4.93;1.93;;;;;;;;;;5018194;28;20492;-73
2021/08/27 03:34:24;;;;;;;6.40;2.10;;;;;;;;;;5014636;28;20483;-74
2021/08/27 03:36:50;;;;;;;4.30;1.97;;;;;;;;;;5017594;28;20173;-75
2021/08/27 03:39:15;;;;;;;4.70;2.00;;;;;;;;;;5016503;28;20450;-75
2021/08/27 03:41:41;;;;;;;7.30;2.37;;;;;;;;;;5017294;28;20234;-75
2021/08/27 03:44:07;;;;;;;5.67;2.20;;;;;;;;;;5018432;28;20200;-75
2021/08/27 03:46:34;;;;;;;8.10;2.27;;;;;;;;;;5019626;28;20719;-75
2021/08/27 03:48:59;;;;;;;4.63;1.80;;;;;;;;;;5016343;28;20185;-75
2021/08/27 03:51:27;;;;;;;8.07;2.30;;;;;;;;;;5013591;28;20428;-75
2021/08/27 03:53:52;;;;;;;4.30;1.93;;;;;;;;;;5017875;28;20200;-75
2021/08/27 03:56:18;;;;;;;6.97;2.47;;;;;;;;;;5020352;28;20438;-75
2021/08/27 03:58:44;;;;;;;8.00;2.50;;;;;;;;;;5020136;28;20185;-75
2021/08/27 04:01:10;;;;;;;6.70;2.40;;;;;;;;;;5020910;28;20209;-75
2021/08/27 04:03:35;;;;;;;5.87;2.40;;;;;;;;;;5019309;28;20549;-75
2021/08/27 04:06:03;;;;;;;6.50;2.70;;;;;;;;;;5019609;28;20204;-75
2021/08/27 04:08:30;;;;;;;8.43;2.10;;;;;;;;;;5021088;28;20212;-75
2021/08/27 04:10:55;;;;;;;7.03;2.13;;;;;;;;;;5017316;28;23615;-75
2021/08/27 04:13:20;;;;;;;7.27;2.20;;;;;;;;;;5018358;28;20471;-74
2021/08/27 04:15:46;;;;;;;8.67;2.00;;;;;;;;;;5019448;28;20216;-75
2021/08/27 04:18:11;;;;;;;8.23;2.63;;;;;;;;;;5017672;28;20200;-75
2021/08/27 04:20:36;;;;;;;5.17;2.13;;;;;;;;;;5019085;28;20179;-75
2021/08/27 04:23:01;;;;;;;10.67;2.80;;;;;;;;;;5020172;28;20212;-75
2021/08/27 04:25:27;;;;;;;6.70;2.23;;;;;;;;;;5019057;28;20274;-75
2021/08/27 04:27:52;;;;;;;7.43;2.90;;;;;;;;;;5019364;28;20193;-75
2021/08/27 04:30:17;;;;;;;7.00;2.20;;;;;;;;;;5018577;28;20227;-75
2021/08/27 04:32:42;;;;;;;9.17;2.63;;;;;;;;;;5018497;28;20649;-75
2021/08/27 04:35:08;;;;;;;5.10;2.00;;;;;;;;;;5016663;28;20208;-75
2021/08/27 04:37:33;;;;;;;9.57;2.47;;;;;;;;;;5019877;28;20184;-75
2021/08/27 04:39:58;;;;;;;3.97;1.50;;;;;;;;;;5018052;28;20204;-75
2021/08/27 04:42:24;;;;;;;5.87;2.17;;;;;;;;;;5017620;28;20191;-75
2021/08/27 04:44:49;;;;;;;6.00;2.13;;;;;;;;;;5019276;28;20204;-76
2021/08/27 04:47:14;;;;;;;9.60;3.07;;;;;;;;;;5018724;28;20590;-75
2021/08/27 04:49:39;;;;;;;8.33;2.20;;;;;;;;;;5018892;28;20181;-75
2021/08/27 04:52:05;;;;;;;5.10;1.63;;;;;;;;;;5019943;28;20181;-75
2021/08/27 04:54:30;;;;;;;9.37;2.07;;;;;;;;;;5019705;28;20213;-75
2021/08/27 04:56:56;;;;;;;7.37;1.90;;;;;;;;;;5018651;28;20177;-75
2021/08/27 04:59:21;;;;;;;4.80;1.90;;;;;;;;;;5019529;28;20177;-75
2021/08/27 05:01:46;;;;;;;6.97;2.10;;;;;;;;;;5017513;28;20204;-75
2021/08/27 05:04:11;;;;;;;3.07;1.50;;;;;;;;;;5020348;28;20809;-75
2021/08/27 05:06:36;;;;;;;3.80;1.40;;;;;;;;;;5022333;28;20176;-75
2021/08/27 05:09:02;;;;;;;4.57;1.50;;;;;;;;;;5022442;28;20185;-75
2021/08/27 05:11:27;;;;;;;4.33;1.60;;;;;;;;;;5020833;28;20191;-75
2021/08/27 05:13:52;;;;;;;5.40;1.80;;;;;;;;;;5021706;28;20207;-75
2021/08/27 05:16:17;;;;;;;3.70;1.53;;;;;;;;;;5019668;28;20662;-75
2021/08/27 05:18:43;;;;;;;7.13;1.90;;;;;;;;;;5019342;28;20549;-75
2021/08/27 05:21:08;;;;;;;3.97;1.50;;;;;;;;;;5021634;28;20276;-75
2021/08/27 05:23:33;;;;;;;6.33;2.10;;;;;;;;;;5016504;28;20196;-75
2021/08/27 05:25:58;;;;;;;6.50;1.60;;;;;;;;;;5020088;28;20204;-75
2021/08/27 05:28:24;;;;;;;6.37;1.70;;;;;;;;;;5023590;28;20185;-75
2021/08/27 05:30:50;;;;;;;6.30;2.33;;;;;;;;;;5021955;28;20722;-75
2021/08/27 05:33:15;;;;;;;4.73;1.60;;;;;;;;;;5036204;28;20477;-75
2021/08/27 05:35:40;;;;;;;6.70;1.60;;;;;;;;;;5020252;28;20569;-75
2021/08/27 05:38:05;;;;;;;4.13;1.43;;;;;;;;;;5020989;28;20666;-75
2021/08/27 05:40:31;;;;;;;7.33;1.50;;;;;;;;;;5020032;28;20208;-74
2021/08/27 05:42:56;;;;;;;8.93;1.93;;;;;;;;;;5018894;28;20184;-74
2021/08/27 05:45:21;;;;;;;5.23;1.40;;;;;;;;;;5022761;28;20289;-75
2021/08/27 05:47:46;;;;;;;5.77;1.50;;;;;;;;;;5022984;28;20176;-75
2021/08/27 05:50:13;;;;;;;7.43;2.00;;;;;;;;;;5023021;28;20173;-75
2021/08/27 05:52:39;;;;;;;6.10;1.90;;;;;;;;;;5023194;28;20649;-75
2021/08/27 05:55:04;;;;;;;3.47;1.40;;;;;;;;;;5022529;28;20464;-75
2021/08/27 05:57:30;;;;;;;4.57;1.80;;;;;;;;;;5021513;28;20535;-75
2021/08/27 05:59:55;;;;;;;4.90;1.87;;;;;;;;;;5018741;28;20188;-75
2021/08/27 06:02:20;;;;;;;5.27;1.70;;;;;;;;;;5019390;28;20177;-73
2021/08/27 06:04:46;;;;;;;7.00;1.40;;;;;;;;;;5020546;28;20631;-73
2021/08/27 06:07:12;;;;;;;6.03;1.63;;;;;;;;;;5021886;28;20439;-74
2021/08/27 06:09:37;;;;;;;8.23;1.53;;;;;;;;;;5019264;28;20236;-74
2021/08/27 06:12:02;;;;;;;8.60;1.47;;;;;;;;;;5018726;28;20283;-75
2021/08/27 06:14:28;;;;;;;1.77;0.90;;;;;;;;;;5020981;28;20208;-75
2021/08/27 06:16:53;;;;;;;4.93;1.57;;;;;;;;;;5020624;28;20211;-73
2021/08/27 06:19:18;;;;;;;3.07;1.20;;;;;;;;;;5019930;28;20189;-74
2021/08/27 06:21:43;;;;;;;5.23;2.03;;;;;;;;;;5020343;28;20183;-74
2021/08/27 06:24:08;;;;;;;8.93;1.90;;;;;;;;;;5021152;28;20222;-75
2021/08/27 06:26:34;;;;;;;5.53;1.40;;;;;;;;;;5016651;28;20188;-74
2021/08/27 06:29:00;;;;;;;8.60;1.50;;;;;;;;;;5018348;28;20187;-75
2021/08/27 06:31:26;;;;;;;9.30;2.70;;;;;;;;;;5019942;28;20184;-75
2021/08/27 06:33:51;;;;;;;7.00;1.63;;;;;;;;;;5020181;28;20970;-76
2021/08/27 06:36:16;;;;;;;6.53;1.80;;;;;;;;;;5018177;28;20236;-76
2021/08/27 06:38:42;;;;;;;7.53;1.47;;;;;;;;;;5016861;28;20181;-76
2021/08/27 06:41:07;;;;;;;4.40;1.50;;;;;;;;;;5018875;28;20184;-76
2021/08/27 06:43:36;;;;;;;4.23;1.23;;;;;;;;;;5016812;28;20220;-76
2021/08/27 06:46:06;;;;;;;5.50;1.57;;;;;;;;;;5017834;28;20295;-76
2021/08/27 06:48:31;;;;;;;12.73;2.07;;;;;;;;;;5014378;28;20451;-75
2021/08/27 06:50:57;;;;;;;7.27;2.20;;;;;;;;;;5015915;28;20440;-76
2021/08/27 06:53:22;;;;;;;6.60;2.13;;;;;;;;;;5018458;28;20235;-76
2021/08/27 06:55:48;;;;;;;6.10;1.73;;;;;;;;;;5017593;28;20214;-76
2021/08/27 06:58:13;;;;;;;4.97;1.80;;;;;;;;;;5016071;28;20650;-76
2021/08/27 07:00:38;;;;;;;5.13;1.77;;;;;;;;;;5014898;28;20176;-77
2021/08/27 07:03:04;;;;;;;3.53;1.70;;;;;;;;;;5016109;28;20185;-77
2021/08/27 07:05:30;;;;;;;4.03;1.63;;;;;;;;;;5020249;28;20309;-76
2021/08/27 07:07:56;;;;;;;3.37;1.40;;;;;;;;;;5018956;28;20519;-76
2021/08/27 07:10:21;;;;;;;4.37;1.80;;;;;;;;;;5017621;28;20180;-77
2021/08/27 07:12:48;;;;;;;7.27;2.13;;;;;;;;;;5017124;28;20428;-76
2021/08/27 07:15:13;;;;;;;4.53;1.93;;;;;;;;;;5015924;28;20204;-76
2021/08/27 07:17:39;;;;;;;2.53;1.80;;;;;;;;;;5017742;28;20522;-76
2021/08/27 07:20:05;;;;;;;5.97;1.77;;;;;;;;;;5017940;28;20185;-76
2021/08/27 07:22:30;;;;;;;5.43;1.67;;;;;;;;;;5022030;28;20192;-77
2021/08/27 07:24:55;;;;;;;3.13;1.57;;;;;;;;;;5018136;28;21080;-76
2021/08/27 07:27:20;;;;;;;5.70;2.20;;;;;;;;;;5018565;28;20180;-76
2021/08/27 07:29:46;;;;;;;7.13;1.80;;;;;;;;;;5016809;28;20184;-76
2021/08/27 07:32:11;;;;;;;2.80;1.50;;;;;;;;;;5018222;28;20242;-77
2021/08/27 07:34:40;;;;;;;7.20;1.33;;;;;;;;;;5018673;28;20253;-76
2021/08/27 07:37:06;;;;;;;7.57;2.10;;;;;;;;;;5015284;28;20186;-76
2021/08/27 07:39:32;;;;;;;6.33;1.80;;;;;;;;;;5017567;28;20464;-75
2021/08/27 07:41:57;;;;;;;4.20;1.90;;;;;;;;;;5017721;28;20470;-76
2021/08/27 07:44:22;;;;;;;5.20;1.80;;;;;;;;;;5015217;28;20254;-76
2021/08/27 07:46:48;;;;;;;4.90;1.80;;;;;;;;;;5017640;28;20182;-76
2021/08/27 07:49:13;;;;;;;4.10;1.73;;;;;;;;;;5018158;28;20181;-76
2021/08/27 07:51:38;;;;;;;6.40;2.00;;;;;;;;;;5016654;28;20656;-76
2021/08/27 07:54:04;;;;;;;4.43;2.07;;;;;;;;;;5014958;28;20197;-75
2021/08/27 07:56:29;;;;;;;5.57;2.60;;;;;;;;;;5016986;28;20177;-76
2021/08/27 07:58:54;;;;;;;5.13;1.70;;;;;;;;;;5018084;28;20189;-76
2021/08/27 08:01:19;;;;;;;7.67;2.27;;;;;;;;;;5019544;28;20173;-76
2021/08/27 08:03:45;;;;;;;4.67;1.97;;;;;;;;;;5015024;28;20633;-76
2021/08/27 08:06:10;;;;;;;8.60;2.60;;;;;;;;;;5015726;28;20232;-76
2021/08/27 08:08:35;;;;;;;6.93;2.10;;;;;;;;;;5018648;28;20177;-76
2021/08/27 08:11:01;;;;;;;7.27;2.37;;;;;;;;;;5017042;28;20254;-76
2021/08/27 08:13:26;;;;;;;5.40;2.17;;;;;;;;;;5014835;28;20292;-76
2021/08/27 08:15:51;;;;;;;5.20;1.70;;;;;;;;;;5015857;28;20220;-75
2021/08/27 08:18:16;;;;;;;5.60;2.10;;;;;;;;;;5020873;28;20188;-79
2021/08/27 08:20:43;;;;;;;5.60;1.93;;;;;;;;;;5021333;28;20299;-79
2021/08/27 08:23:08;;;;;;;4.60;1.90;;;;;;;;;;5024491;28;20212;-79
2021/08/27 08:25:33;;;;;;;5.43;1.80;;;;;;;;;;5023642;28;22070;-79
2021/08/27 08:27:59;;;;;;;5.47;2.70;;;;;;;;;;5023902;28;20644;-79
2021/08/27 08:30:24;;;;;;;3.53;1.63;;;;;;;;;;5023699;28;20184;-79
2021/08/27 08:32:49;;;;;;;3.57;1.53;;;;;;;;;;5021979;28;20564;-79
2021/08/27 08:35:14;;;;;;;6.63;2.10;;;;;;;;;;5023741;28;20197;-79
2021/08/27 08:37:40;;;;;;;6.27;2.60;;;;;;;;;;5024242;28;20325;-79
2021/08/27 08:40:05;;;;;;;5.17;1.50;;;;;;;;;;5026807;28;20176;-80
2021/08/27 08:42:31;;;;;;;4.20;1.90;;;;;;;;;;5026768;28;20699;-80
2021/08/27 08:44:56;;;;;;;5.90;2.30;;;;;;;;;;5021737;28;20340;-80
2021/08/27 08:47:22;;;;;;;3.03;2.10;;;;;;;;;;5028711;28;20192;-80
2021/08/27 08:49:48;;;;;;;5.77;2.10;;;;;;;;;;5026862;28;20185;-80
2021/08/27 08:52:21;;;;;;;6.50;1.97;;;;;;;;;;5026870;28;20511;-80
2021/08/27 08:54:53;;;;;;;8.43;2.20;;;;;;;;;;5024130;28;20562;-80
2021/08/27 08:57:22;;;;;;;4.60;1.97;;;;;;;;;;5025984;28;20928;-79
2021/08/27 08:59:48;;;;;;;13.10;2.37;;;;;;;;;;5023733;28;20423;-81
2021/08/27 09:02:13;;;;;;;7.30;2.50;;;;;;;;;;5023067;28;20986;-81
2021/08/27 09:04:39;;;;;;;6.60;2.30;;;;;;;;;;5022872;28;20463;-80
2021/08/27 09:07:04;;;;;;;4.40;1.87;;;;;;;;;;5023383;28;20184;-80
2021/08/27 09:09:30;;;;;;;1.90;1.27;;;;;;;;;;5029120;28;20188;-81
2021/08/27 09:11:56;;;;;;;6.73;1.70;;;;;;;;;;5024491;28;20180;-80
2021/08/27 09:14:27;;;;;;;3.37;1.57;;;;;;;;;;5023611;28;21153;-80
2021/08/27 09:17:00;;;;;;;2.00;1.10;;;;;;;;;;5021610;28;20185;-81
2021/08/27 09:19:47;;;;;;;2.37;1.10;;;;;;;;;;5024265;28;20434;-80
2021/08/27 09:22:13;;;;;;;2.33;1.17;;;;;;;;;;5023641;28;20411;-80
2021/08/27 09:24:38;;;;;;;4.20;1.47;;;;;;;;;;5023981;28;20512;-80
2021/08/27 09:27:06;;;;;;;3.50;1.10;;;;;;;;;;5024723;28;20254;-81
2021/08/27 09:29:49;;;;;;;2.37;0.97;;;;;;;;;;5023215;28;20185;-81
2021/08/27 09:32:19;;;;;;;2.40;1.10;;;;;;;;;;5024711;28;20427;-80
2021/08/27 09:34:44;;;;;;;4.07;1.20;;;;;;;;;;5024273;28;20527;-81
2021/08/27 09:37:09;;;;;;;2.43;1.20;;;;;;;;;;5025833;28;20530;-80
2021/08/27 09:39:35;;;;;;;2.07;1.07;;;;;;;;;;5024190;28;20185;-80
2021/08/27 09:42:01;;;;;;;2.50;1.13;;;;;;;;;;5022389;28;20641;-81
2021/08/27 09:44:26;;;;;;;4.93;1.13;;;;;;;;;;5025336;28;20205;-81
2021/08/27 09:46:51;;;;;;;3.97;1.50;;;;;;;;;;5025459;28;20177;-81
2021/08/27 09:49:36;;;;;;;4.63;1.70;;;;;;;;;;5024867;28;20186;-80
2021/08/27 09:52:02;;;;;;;2.40;1.37;;;;;;;;;;5023122;28;20546;-81
2021/08/27 09:54:35;;;;;;;3.87;1.70;;;;;;;;;;5024130;28;20809;-80
2021/08/27 09:57:01;;;;;;;4.37;1.50;;;;;;;;;;5024426;28;20431;-80
2021/08/27 09:59:32;;;;;;;6.33;1.70;;;;;;;;;;5026294;28;20428;-81
2021/08/27 10:01:57;;;;;;;3.07;1.70;;;;;;;;;;5026102;28;20423;-80
2021/08/27 10:04:22;;;;;;;2.83;1.33;;;;;;;;;;5024290;28;20452;-80
2021/08/27 10:06:48;;;;;;;3.13;1.57;;;;;;;;;;5023979;28;21137;-80
2021/08/27 10:09:13;;;;;;;5.50;1.80;;;;;;;;;;5023785;28;20249;-80
2021/08/27 10:11:38;;;;;;;4.60;1.30;;;;;;;;;;5025028;28;20206;-80
2021/08/27 10:14:05;;;;;;;8.47;1.60;;;;;;;;;;5026385;28;20197;-80
2021/08/27 10:16:30;;;;;;;8.07;1.90;;;;;;;;;;5026562;28;20180;-81
2021/08/27 10:18:56;;;;;;;7.83;1.80;;;;;;;;;;5023865;28;20428;-81
2021/08/27 10:21:21;;;;;;;3.40;1.57;;;;;;;;;;5023533;28;20272;-80
2021/08/27 10:23:46;;;;;;;4.50;1.93;;;;;;;;;;5023802;28;20590;-81
2021/08/27 10:26:16;;;;;;;4.47;1.93;;;;;;;;;;5024072;28;20244;-79
2021/08/27 10:28:41;;;;;;;4.87;2.10;;;;;;;;;;5023790;28;20195;-80
2021/08/27 10:31:06;;;;;;;5.37;1.70;;;;;;;;;;5041808;28;21396;-81
2021/08/27 10:33:41;;;;;;;3.80;1.57;;;;;;;;;;5025704;28;20602;-81
2021/08/27 10:36:10;;;;;;;5.37;2.00;;;;;;;;;;5023651;28;20296;-81
2021/08/27 10:38:43;;;;;;;6.93;2.07;;;;;;;;;;5025098;28;20517;-81
2021/08/27 10:41:13;;;;;;;6.17;2.10;;;;;;;;;;5023758;28;20474;-81
2021/08/27 10:43:48;;;;;;;7.90;2.30;;;;;;;;;;5025057;28;20518;-81
2021/08/27 10:46:13;;;;;;;4.00;1.77;;;;;;;;;;5024370;28;20463;-81
2021/08/27 10:48:46;;;;;;;6.43;2.50;;;;;;;;;;5021172;28;21001;-80
2021/08/27 10:51:28;;;;;;;4.10;1.80;;;;;;;;;;5023296;28;20177;-80
2021/08/27 10:53:54;;;;;;;6.33;2.13;;;;;;;;;;5024167;28;20462;-80
2021/08/27 10:56:40;;;;;;;6.33;1.87;;;;;;;;;;5019119;28;20439;-81
2021/08/27 10:59:09;;;;;;;15.70;2.50;;;;;;;;;;5023851;28;20173;-81
2021/08/27 11:01:35;;;;;;;2.80;1.60;;;;;;;;;;5022683;28;20419;-81
2021/08/27 11:04:03;;;;;;;5.53;1.67;;;;;;;;;;5023464;28;20954;-81
2021/08/27 11:06:28;;;;;;;2.90;1.30;;;;;;;;;;5020147;28;20436;-81
2021/08/27 11:08:53;;;;;;;3.40;1.60;;;;;;;;;;5022035;28;20454;-81
2021/08/27 11:11:19;;;;;;;1.90;1.53;;;;;;;;;;5026539;28;20185;-80
2021/08/27 11:13:45;;;;;;;4.40;1.57;;;;;;;;;;5016271;28;20197;-80
2021/08/27 11:16:30;;;;;;;4.97;1.80;;;;;;;;;;5016016;28;20455;-80
2021/08/27 11:18:55;;;;;;;5.40;2.27;;;;;;;;;;5018913;28;20245;-80
2021/08/27 11:21:28;;;;;;;5.57;2.20;;;;;;;;;;5018264;28;20436;-79
2021/08/27 11:23:55;;;;;;;4.47;1.20;;;;;;;;;;5019843;28;20206;-80
2021/08/27 11:26:38;;;;;;;6.03;2.10;;;;;;;;;;5020504;28;20501;-81
2021/08/27 11:29:23;;;;;;;4.70;1.77;;;;;;;;;;5021518;28;20442;-81
2021/08/27 11:31:50;;;;;;;4.27;1.87;;;;;;;;;;5022080;28;20431;-81
2021/08/27 11:34:15;;;;;;;3.10;1.70;;;;;;;;;;5021590;28;20479;-81
2021/08/27 11:36:41;;;;;;;5.43;1.53;;;;;;;;;;5022600;28;20420;-81
2021/08/27 11:39:09;;;;;;;3.80;1.77;;;;;;;;;;5018212;28;20184;-81
2021/08/27 11:41:35;;;;;;;3.07;1.30;;;;;;;;;;5017200;28;20563;-81
2021/08/27 11:44:05;;;;;;;4.80;1.87;;;;;;;;;;5019926;28;20459;-81
2021/08/27 11:46:31;;;;;;;3.80;1.80;;;;;;;;;;5019953;28;20523;-81
2021/08/27 11:48:59;;;;;;;5.30;2.10;;;;;;;;;;5016603;28;20569;-81
2021/08/27 11:51:29;;;;;;;4.10;1.53;;;;;;;;;;5019640;28;20177;-82
2021/08/27 11:53:54;;;;;;;5.20;1.40;;;;;;;;;;5018995;28;21081;-81
2021/08/27 11:56:20;;;;;;;2.43;1.27;;;;;;;;;;5022435;28;20439;-81
2021/08/27 11:58:46;;;;;;;2.83;1.20;;;;;;;;;;5021004;28;20196;-81
2021/08/27 12:01:24;;;;;;;2.63;1.60;;;;;;;;;;5020630;28;20974;-81
2021/08/27 12:03:50;;;;;;;7.40;1.63;;;;;;;;;;5019814;28;20176;-81
2021/08/27 12:06:24;;;;;;;4.90;1.60;;;;;;;;;;5018023;28;20451;-81
2021/08/27 12:08:50;;;;;;;5.17;1.57;;;;;;;;;;5023738;28;20632;-80
2021/08/27 12:11:27;;;;;;;3.80;1.30;;;;;;;;;;5023422;28;20455;-81
2021/08/27 12:13:52;;;;;;;2.87;1.73;;;;;;;;;;5020205;28;20198;-81
2021/08/27 12:16:19;;;;;;;5.53;2.60;;;;;;;;;;5022612;28;20472;-81
2021/08/27 12:18:44;;;;;;;3.93;1.30;;;;;;;;;;5022693;28;20173;-81
2021/08/27 12:21:17;;;;;;;5.30;1.70;;;;;;;;;;5022901;28;20822;-81
2021/08/27 12:23:42;;;;;;;2.80;1.23;;;;;;;;;;5023381;28;20185;-81
2021/08/27 12:26:21;;;;;;;5.23;2.13;;;;;;;;;;5021850;28;20455;-81
2021/08/27 12:28:46;;;;;;;2.47;1.10;;;;;;;;;;5022462;28;20659;-81
2021/08/27 12:31:11;;;;;;;3.87;1.47;;;;;;;;;;5021909;28;20421;-81
2021/08/27 12:33:38;;;;;;;3.80;1.20;;;;;;;;;;5023221;28;20687;-81
2021/08/27 12:36:04;;;;;;;1.90;1.23;;;;;;;;;;5022962;28;20192;-81
2021/08/27 12:38:29;;;;;;;1.83;1.20;;;;;;;;;;5022791;28;20418;-80
2021/08/27 12:40:54;;;;;;;2.90;1.30;;;;;;;;;;5023326;28;20183;-81
2021/08/27 12:43:23;;;;;;;4.73;1.50;;;;;;;;;;5023241;28;20177;-81
2021/08/27 12:45:52;;;;;;;2.90;1.37;;;;;;;;;;5021976;28;20550;-81
2021/08/27 12:48:18;;;;;;;2.90;1.30;;;;;;;;;;5020509;28;20416;-81
2021/08/27 12:50:45;;;;;;;2.80;1.40;;;;;;;;;;5022425;28;20445;-81
2021/08/27 12:53:10;;;;;;;2.07;1.10;;;;;;;;;;5022041;28;20420;-81
2021/08/27 12:55:35;;;;;;;2.07;1.30;;;;;;;;;;5021876;28;20510;-81
2021/08/27 12:58:00;;;;;;;1.63;1.27;;;;;;;;;;5021503;28;20182;-81
2021/08/27 13:00:27;;;;;;;5.03;1.20;;;;;;;;;;5030242;28;20645;-81
2021/08/27 13:03:05;;;;;;;5.10;1.60;;;;;;;;;;5021746;28;20169;-80
2021/08/27 13:05:38;;;;;;;3.03;1.50;;;;;;;;;;5023082;28;20500;-81
2021/08/27 13:08:07;;;;;;;2.30;1.27;;;;;;;;;;5024120;28;20415;-79
2021/08/27 13:10:32;;;;;;;3.33;1.20;;;;;;;;;;5022653;28;20419;-78
2021/08/27 13:12:58;;;;;;;1.77;1.30;;;;;;;;;;5023019;28;20420;-78
2021/08/27 13:15:26;;;;;;;2.20;1.13;;;;;;;;;;5022359;28;20200;-78
2021/08/27 13:17:54;;;;;;;1.43;1.03;;;;;;;;;;5022041;28;20173;-78
2021/08/27 13:20:24;;;;;;;5.10;1.43;;;;;;;;;;5021174;28;20415;-78
2021/08/27 13:22:49;;;;;;;6.90;1.07;;;;;;;;;;5022248;28;20415;-77
2021/08/27 13:25:14;;;;;;;3.23;1.30;;;;;;;;;;5024441;28;20478;-79
2021/08/27 13:27:41;;;;;;;2.50;1.20;;;;;;;;;;5025160;28;20181;-81
2021/08/27 13:30:07;;;;;;;1.33;1.23;;;;;;;;;;5026438;28;20255;-82
2021/08/27 13:32:50;;;;;;;4.57;1.90;;;;;;;;;;5025362;28;20416;-81
2021/08/27 13:35:16;;;;;;;2.97;1.40;;;;;;;;;;5024752;28;20998;-81
2021/08/27 13:37:42;;;;;;;2.60;1.17;;;;;;;;;;5025232;28;20399;-82
2021/08/27 13:40:07;;;;;;;6.63;1.37;;;;;;;;;;5025050;28;20260;-80
2021/08/27 13:42:33;;;;;;;2.80;1.50;;;;;;;;;;5024982;28;20440;-79
2021/08/27 13:44:58;;;;;;;5.87;1.63;;;;;;;;;;5025272;28;20225;-80
2021/08/27 13:47:24;;;;;;;2.57;1.20;;;;;;;;;;5023464;28;20203;-79
2021/08/27 13:49:49;;;;;;;3.03;1.13;;;;;;;;;;5025712;28;20181;-79
2021/08/27 13:52:14;;;;;;;2.57;1.20;;;;;;;;;;5025021;28;20183;-79
2021/08/27 13:54:39;;;;;;;1.50;1.40;;;;;;;;;;5025039;28;20607;-78
2021/08/27 13:57:05;;;;;;;3.00;1.07;;;;;;;;;;5023847;28;20173;-79
2021/08/27 13:59:30;;;;;;;2.40;1.17;;;;;;;;;;5024592;28;20172;-79
2021/08/27 14:01:55;;;;;;;3.33;1.40;;;;;;;;;;5024886;28;20169;-79
2021/08/27 14:04:21;;;;;;;4.20;1.37;;;;;;;;;;5025422;28;20669;-79
2021/08/27 14:06:46;;;;;;;1.40;1.27;;;;;;;;;;5025054;28;20178;-79
2021/08/27 14:09:12;;;;;;;2.60;1.23;;;;;;;;;;5025778;28;20179;-79
2021/08/27 14:11:38;;;;;;;3.73;1.80;;;;;;;;;;5024304;28;20656;-79
2021/08/27 14:14:03;;;;;;;2.63;1.50;;;;;;;;;;5024523;28;20503;-79
2021/08/27 14:16:28;;;;;;;4.27;1.37;;;;;;;;;;5023141;28;20194;-79
2021/08/27 14:18:53;;;;;;;2.13;1.17;;;;;;;;;;5025828;28;20177;-79
2021/08/27 14:21:19;;;;;;;2.23;1.40;;;;;;;;;;5025393;28;20210;-78
2021/08/27 14:23:44;;;;;;;2.83;1.27;;;;;;;;;;5025141;28;20215;-79
2021/08/27 14:26:09;;;;;;;6.33;1.80;;;;;;;;;;5023687;28;20212;-79
2021/08/27 14:28:35;;;;;;;2.50;1.30;;;;;;;;;;5024990;28;20662;-78
2021/08/27 14:31:00;;;;;;;2.37;1.33;;;;;;;;;;5024806;28;20173;-79
2021/08/27 14:33:30;;;;;;;6.63;1.73;;;;;;;;;;5025139;28;20252;-79
2021/08/27 14:35:55;;;;;;;3.80;1.50;;;;;;;;;;5025239;28;20307;-79
2021/08/27 14:38:20;;;;;;;2.40;1.70;;;;;;;;;;5024697;28;20444;-79
2021/08/27 14:40:45;;;;;;;5.17;1.63;;;;;;;;;;5024101;28;20781;-78
2021/08/27 14:43:10;;;;;;;3.53;1.80;;;;;;;;;;5024475;28;20994;-79